createdAt,value
2022-09-10T00:00:05.089Z,17.14
2022-09-10T00:01:28.772Z,16.50
2022-09-10T00:02:32.191Z,17.06
2022-09-10T00:03:33.869Z,16.18
2022-09-10T00:04:35.613Z,15.86
2022-09-10T00:05:42.056Z,16.17
2022-09-10T00:06:45.120Z,16.87
2022-09-10T00:07:47.672Z,17.37
2022-09-10T00:08:49.362Z,17.45
2022-09-10T00:09:51.136Z,16.66
2022-09-10T00:10:52.836Z,16.74
2022-09-10T00:11:54.761Z,16.38
2022-09-10T00:12:56.448Z,16.37
2022-09-10T00:13:59.710Z,17.00
2022-09-10T00:15:02.198Z,16.44
2022-09-10T00:16:09.219Z,16.18
2022-09-10T00:17:10.949Z,15.52
2022-09-10T00:18:14.686Z,17.23
2022-09-10T00:19:17.180Z,16.48
2022-09-10T00:20:19.019Z,15.45
2022-09-10T00:21:21.616Z,16.45
2022-09-10T00:22:23.269Z,15.36
2022-09-10T00:23:28.257Z,15.77
2022-09-10T00:24:30.001Z,16.07
2022-09-10T00:25:34.998Z,16.85
2022-09-10T00:26:39.512Z,16.41
2022-09-10T00:27:41.426Z,15.99
2022-09-10T00:28:43.503Z,16.88
2022-09-10T00:29:45.559Z,17.40
2022-09-10T00:30:49.737Z,17.26
2022-09-10T00:31:51.785Z,17.25
2022-09-10T00:32:55.016Z,17.19
2022-09-10T00:33:59.309Z,16.47
2022-09-10T00:35:01.731Z,17.55
2022-09-10T00:36:06.017Z,17.58
2022-09-10T00:37:07.708Z,17.11
2022-09-10T00:38:10.935Z,17.96
2022-09-10T00:39:16.972Z,17.82
2022-09-10T00:40:19.268Z,16.98
2022-09-10T00:41:24.170Z,16.57
2022-09-10T00:42:25.963Z,17.35
2022-09-10T00:43:27.653Z,17.01
2022-09-10T00:44:40.956Z,16.80
2022-09-10T00:45:46.212Z,17.12
2022-09-10T00:46:51.898Z,16.78
2022-09-10T00:48:00.110Z,18.24
2022-09-10T00:49:09.952Z,17.50
2022-09-10T00:50:26.998Z,17.38
2022-09-10T00:51:35.139Z,17.67
2022-09-10T00:52:39.786Z,18.06
2022-09-10T00:53:43.323Z,16.90
2022-09-10T00:54:47.548Z,17.72
2022-09-10T00:55:54.957Z,17.06
2022-09-10T00:57:05.498Z,17.42
2022-09-10T00:58:11.965Z,17.96
2022-09-10T00:59:18.852Z,17.39
2022-09-10T01:00:21.369Z,17.40
2022-09-10T01:01:23.411Z,17.00
2022-09-10T01:02:26.070Z,16.69
2022-09-10T01:03:31.128Z,16.93
2022-09-10T01:04:33.455Z,17.63
2022-09-10T01:05:35.140Z,17.01
2022-09-10T01:06:40.386Z,16.58
2022-09-10T01:07:42.845Z,17.37
2022-09-10T01:08:44.505Z,18.36
2022-09-10T01:09:46.365Z,18.08
2022-09-10T01:11:14.444Z,17.78
2022-09-10T01:12:50.277Z,17.77
2022-09-10T01:14:17.079Z,18.02
2022-09-10T01:15:35.441Z,16.70
2022-09-10T01:16:44.584Z,17.18
2022-09-10T01:18:10.898Z,17.85
2022-09-10T01:19:51.440Z,16.89
2022-09-10T01:20:56.638Z,17.19
2022-09-10T01:22:21.613Z,16.59
2022-09-10T01:23:44.270Z,18.09
2022-09-10T01:24:56.607Z,17.10
2022-09-10T01:26:07.051Z,16.66
2022-09-10T01:27:26.758Z,17.51
2022-09-10T01:28:40.113Z,16.76
2022-09-10T01:30:08.934Z,17.28
2022-09-10T01:31:25.446Z,17.54
2022-09-10T01:32:38.761Z,17.79
2022-09-10T01:33:53.245Z,17.13
2022-09-10T01:35:14.656Z,17.76
2022-09-10T01:36:23.093Z,17.34
2022-09-10T01:37:31.391Z,17.64
2022-09-10T01:38:38.431Z,16.41
2022-09-10T01:39:42.490Z,16.48
2022-09-10T01:40:44.732Z,16.74
2022-09-10T01:41:52.876Z,17.10
2022-09-10T01:43:05.809Z,17.89
2022-09-10T01:44:44.311Z,17.21
2022-09-10T01:46:14.407Z,17.84
2022-09-10T01:47:41.037Z,18.25
2022-09-10T01:49:22.131Z,18.35
2022-09-10T01:50:38.453Z,19.05
2022-09-10T01:52:09.433Z,18.72
2022-09-10T01:53:47.882Z,17.90
2022-09-10T01:55:30.315Z,18.80
2022-09-10T01:56:50.088Z,18.89
2022-09-10T01:58:22.256Z,19.24
2022-09-10T01:59:54.391Z,18.64
2022-09-10T02:01:16.521Z,18.09
2022-09-10T02:02:28.884Z,17.88
2022-09-10T02:03:33.362Z,17.67
2022-09-10T02:04:37.309Z,18.85
2022-09-10T02:05:43.597Z,18.38
2022-09-10T02:06:50.154Z,18.56
2022-09-10T02:07:58.947Z,17.90
2022-09-10T02:09:02.424Z,17.44
2022-09-10T02:10:08.347Z,17.42
2022-09-10T02:11:16.128Z,17.75
2022-09-10T02:12:23.961Z,18.61
2022-09-10T02:13:31.689Z,17.86
2022-09-10T02:14:52.352Z,17.85
2022-09-10T02:15:59.385Z,17.78
2022-09-10T02:17:07.374Z,18.17
2022-09-10T02:18:09.543Z,18.28
2022-09-10T02:19:12.087Z,18.33
2022-09-10T02:20:14.993Z,19.38
2022-09-10T02:21:18.225Z,19.92
2022-09-10T02:22:23.853Z,19.51
2022-09-10T02:23:41.015Z,20.65
2022-09-10T02:24:44.311Z,20.67
2022-09-10T02:25:48.466Z,20.18
2022-09-10T02:26:51.109Z,20.27
2022-09-10T02:27:54.967Z,19.29
2022-09-10T02:28:56.731Z,19.21
2022-09-10T02:29:58.450Z,19.77
2022-09-10T02:31:01.725Z,19.42
2022-09-10T02:32:04.329Z,19.08
2022-09-10T02:33:06.262Z,19.98
2022-09-10T02:34:08.124Z,20.36
2022-09-10T02:35:09.999Z,20.71
2022-09-10T02:36:11.721Z,20.53
2022-09-10T02:37:13.707Z,19.93
2022-09-10T02:38:16.914Z,19.51
2022-09-10T02:39:18.957Z,19.06
2022-09-10T02:40:21.144Z,18.87
2022-09-10T02:41:24.182Z,19.56
2022-09-10T02:42:27.587Z,20.19
2022-09-10T02:43:29.828Z,19.55
2022-09-10T02:44:34.645Z,18.82
2022-09-10T02:45:38.782Z,19.14
2022-09-10T02:46:40.574Z,19.05
2022-09-10T02:47:42.704Z,18.76
2022-09-10T02:48:44.459Z,18.78
2022-09-10T02:49:46.156Z,19.28
2022-09-10T02:50:48.464Z,19.56
2022-09-10T02:51:51.592Z,20.16
2022-09-10T02:52:53.854Z,18.59
2022-09-10T02:53:55.876Z,19.44
2022-09-10T02:54:57.663Z,19.33
2022-09-10T02:56:01.026Z,19.10
2022-09-10T02:57:02.714Z,19.48
2022-09-10T02:58:04.434Z,19.33
2022-09-10T02:59:06.717Z,18.88
2022-09-10T03:00:08.917Z,18.55
2022-09-10T03:01:14.813Z,18.54
2022-09-10T03:02:17.365Z,18.13
2022-09-10T03:03:19.074Z,19.09
2022-09-10T03:04:20.705Z,18.88
2022-09-10T03:05:22.522Z,18.53
2022-09-10T03:06:27.149Z,19.40
2022-09-10T03:07:28.784Z,19.44
2022-09-10T03:08:31.045Z,19.06
2022-09-10T03:09:33.329Z,17.97
2022-09-10T03:10:36.020Z,18.61
2022-09-10T03:11:40.729Z,17.43
2022-09-10T03:12:42.717Z,18.39
2022-09-10T03:13:46.226Z,18.38
2022-09-10T03:14:48.654Z,19.07
2022-09-10T03:15:50.281Z,18.47
2022-09-10T03:16:52.742Z,19.00
2022-09-10T03:17:55.033Z,19.08
2022-09-10T03:18:56.688Z,18.13
2022-09-10T03:19:58.436Z,19.12
2022-09-10T03:21:10.859Z,18.81
2022-09-10T03:22:12.632Z,19.23
2022-09-10T03:23:14.383Z,17.81
2022-09-10T03:24:16.593Z,17.79
2022-09-10T03:25:20.156Z,18.17
2022-09-10T03:26:25.397Z,19.53
2022-09-10T03:27:27.335Z,18.89
2022-09-10T03:28:29.929Z,17.35
2022-09-10T03:29:31.645Z,16.20
2022-09-10T03:30:33.672Z,17.05
2022-09-10T03:31:36.107Z,17.57
2022-09-10T03:32:38.292Z,17.58
2022-09-10T03:33:41.711Z,18.87
2022-09-10T03:34:44.279Z,18.20
2022-09-10T03:35:46.614Z,17.80
2022-09-10T03:36:48.419Z,18.37
2022-09-10T03:37:50.484Z,18.47
2022-09-10T03:38:52.906Z,17.99
2022-09-10T03:39:54.599Z,18.30
2022-09-10T03:40:56.739Z,18.59
2022-09-10T03:41:59.540Z,18.46
2022-09-10T03:43:02.995Z,18.63
2022-09-10T03:44:06.204Z,17.93
2022-09-10T03:45:08.819Z,19.02
2022-09-10T03:46:12.100Z,18.23
2022-09-10T03:47:15.368Z,18.07
2022-09-10T03:48:19.002Z,17.79
2022-09-10T03:49:20.640Z,18.20
2022-09-10T03:50:23.955Z,19.35
2022-09-10T03:51:28.005Z,18.88
2022-09-10T03:52:30.198Z,19.06
2022-09-10T03:53:32.180Z,19.25
2022-09-10T03:54:35.383Z,19.48
2022-09-10T03:55:37.409Z,20.61
2022-09-10T03:56:39.804Z,20.90
2022-09-10T03:57:43.749Z,19.70
2022-09-10T03:58:46.224Z,19.57
2022-09-10T03:59:48.872Z,19.95
2022-09-10T04:00:50.749Z,18.85
2022-09-10T04:01:52.572Z,17.70
2022-09-10T04:02:55.128Z,18.41
2022-09-10T04:03:58.357Z,18.56
2022-09-10T04:05:01.913Z,18.74
2022-09-10T04:06:03.796Z,19.01
2022-09-10T04:07:05.526Z,18.38
2022-09-10T04:08:09.956Z,19.13
2022-09-10T04:09:12.056Z,19.55
2022-09-10T04:10:14.090Z,19.16
2022-09-10T04:11:16.074Z,19.24
2022-09-10T04:12:18.190Z,19.35
2022-09-10T04:13:19.932Z,19.87
2022-09-10T04:14:21.965Z,19.77
2022-09-10T04:15:25.004Z,19.75
2022-09-10T04:16:29.133Z,18.44
2022-09-10T04:17:31.677Z,18.87
2022-09-10T04:18:34.588Z,19.42
2022-09-10T04:19:38.097Z,19.95
2022-09-10T04:20:40.548Z,19.66
2022-09-10T04:21:44.752Z,20.56
2022-09-10T04:22:47.641Z,22.16
2022-09-10T04:23:54.376Z,21.18
2022-09-10T04:24:56.149Z,21.08
2022-09-10T04:25:57.853Z,20.06
2022-09-10T04:27:01.699Z,20.43
2022-09-10T04:28:03.897Z,19.75
2022-09-10T04:29:06.855Z,18.96
2022-09-10T04:30:10.151Z,19.47
2022-09-10T04:31:12.312Z,19.98
2022-09-10T04:32:14.373Z,19.16
2022-09-10T04:33:16.750Z,20.09
2022-09-10T04:34:18.468Z,18.97
2022-09-10T04:35:20.534Z,19.62
2022-09-10T04:36:22.815Z,21.10
2022-09-10T04:37:25.529Z,20.84
2022-09-10T04:38:30.423Z,21.35
2022-09-10T04:39:32.630Z,20.49
2022-09-10T04:40:34.925Z,20.83
2022-09-10T04:41:36.562Z,19.63
2022-09-10T04:42:39.567Z,19.80
2022-09-10T04:43:41.514Z,18.72
2022-09-10T04:44:43.249Z,19.62
2022-09-10T04:45:45.309Z,19.30
2022-09-10T04:46:47.867Z,19.07
2022-09-10T04:47:49.579Z,19.52
2022-09-10T04:48:52.046Z,19.66
2022-09-10T04:49:56.905Z,18.89
2022-09-10T04:51:15.827Z,19.60
2022-09-10T04:52:22.739Z,18.74
2022-09-10T04:53:27.815Z,18.13
2022-09-10T04:54:30.765Z,17.89
2022-09-10T04:55:33.269Z,17.56
2022-09-10T04:56:35.123Z,17.89
2022-09-10T04:57:36.751Z,17.24
2022-09-10T04:58:41.093Z,17.74
2022-09-10T04:59:43.511Z,17.88
2022-09-10T05:00:45.534Z,18.10
2022-09-10T05:01:51.152Z,17.45
2022-09-10T05:02:53.304Z,16.86
2022-09-10T05:03:55.353Z,16.98
2022-09-10T05:04:57.027Z,16.39
2022-09-10T05:05:59.011Z,15.91
2022-09-10T05:07:01.499Z,16.87
2022-09-10T05:08:05.728Z,15.20
2022-09-10T05:09:08.931Z,14.36
2022-09-10T05:10:10.683Z,13.59
2022-09-10T05:11:13.249Z,13.15
2022-09-10T05:12:15.787Z,13.53
2022-09-10T05:13:17.688Z,13.85
2022-09-10T05:14:19.722Z,12.99
2022-09-10T05:15:22.271Z,13.57
2022-09-10T05:16:24.238Z,13.41
2022-09-10T05:17:25.899Z,13.47
2022-09-10T05:18:27.790Z,13.03
2022-09-10T05:19:29.632Z,13.08
2022-09-10T05:20:36.476Z,12.39
2022-09-10T05:21:38.121Z,12.22
2022-09-10T05:22:40.746Z,12.18
2022-09-10T05:23:42.822Z,11.74
2022-09-10T05:24:45.346Z,11.52
2022-09-10T05:25:48.749Z,11.48
2022-09-10T05:26:50.671Z,11.71
2022-09-10T05:27:52.724Z,11.46
2022-09-10T05:28:59.717Z,11.59
2022-09-10T05:30:02.133Z,12.43
2022-09-10T05:31:04.119Z,12.22
2022-09-10T05:32:05.904Z,12.67
2022-09-10T05:33:08.738Z,12.53
2022-09-10T05:34:10.669Z,12.33
2022-09-10T05:35:13.903Z,13.06
2022-09-10T05:36:18.026Z,12.07
2022-09-10T05:37:19.689Z,12.11
2022-09-10T05:38:21.820Z,12.36
2022-09-10T05:39:24.445Z,13.06
2022-09-10T05:40:26.517Z,13.36
2022-09-10T05:41:28.545Z,13.11
2022-09-10T05:42:31.822Z,13.46
2022-09-10T05:43:34.002Z,13.22
2022-09-10T05:44:36.096Z,14.15
2022-09-10T05:45:38.309Z,14.62
2022-09-10T05:46:40.498Z,15.64
2022-09-10T05:47:46.684Z,15.21
2022-09-10T05:48:55.799Z,15.33
2022-09-10T05:49:57.452Z,16.06
2022-09-10T05:50:59.130Z,16.13
2022-09-10T05:52:00.974Z,16.83
2022-09-10T05:53:02.783Z,16.95
2022-09-10T05:54:06.621Z,16.97
2022-09-10T05:55:09.243Z,16.67
2022-09-10T05:56:10.924Z,15.76
2022-09-10T05:57:13.506Z,15.76
2022-09-10T05:58:16.188Z,16.62
2022-09-10T05:59:18.270Z,17.22
2022-09-10T06:00:25.456Z,16.27
2022-09-10T06:01:34.946Z,17.61
2022-09-10T06:02:39.030Z,17.41
2022-09-10T06:03:42.357Z,17.69
2022-09-10T06:04:44.205Z,18.29
2022-09-10T06:05:53.029Z,17.90
2022-09-10T06:06:59.083Z,17.93
2022-09-10T06:08:03.353Z,18.04
2022-09-10T06:09:09.020Z,18.92
2022-09-10T06:11:05.810Z,16.78
2022-09-10T06:12:14.309Z,17.73
2022-09-10T06:13:15.967Z,17.65
2022-09-10T06:14:17.775Z,17.99
2022-09-10T06:15:21.209Z,18.77
2022-09-10T06:16:23.719Z,18.38
2022-09-10T06:17:25.393Z,18.50
2022-09-10T06:18:27.874Z,17.86
2022-09-10T06:19:30.343Z,17.12
2022-09-10T06:20:32.517Z,18.11
2022-09-10T06:21:35.148Z,18.49
2022-09-10T06:22:37.045Z,17.88
2022-09-10T06:23:39.488Z,16.97
2022-09-10T06:24:42.116Z,17.35
2022-09-10T06:25:44.718Z,18.23
2022-09-10T06:26:50.120Z,17.16
2022-09-10T06:27:52.533Z,17.65
2022-09-10T06:28:56.813Z,16.74
2022-09-10T06:29:58.829Z,16.18
2022-09-10T06:31:00.917Z,15.71
2022-09-10T06:32:03.636Z,16.86
2022-09-10T06:33:05.329Z,16.57
2022-09-10T06:34:07.451Z,15.99
2022-09-10T06:35:09.953Z,15.50
2022-09-10T06:36:13.467Z,15.54
2022-09-10T06:37:16.616Z,15.21
2022-09-10T06:38:19.501Z,15.58
2022-09-10T06:39:21.406Z,16.08
2022-09-10T06:40:27.768Z,15.46
2022-09-10T06:41:31.112Z,14.80
2022-09-10T06:42:38.977Z,14.39
2022-09-10T06:43:51.902Z,13.42
2022-09-10T06:45:03.166Z,13.52
2022-09-10T06:49:12.675Z,14.32
2022-09-10T06:50:16.568Z,14.83
2022-09-10T06:51:20.347Z,15.53
2022-09-10T06:52:24.663Z,16.05
2022-09-10T06:53:35.095Z,15.87
2022-09-10T06:54:37.705Z,15.74
2022-09-10T06:55:54.700Z,16.10
2022-09-10T06:56:57.949Z,16.18
2022-09-10T06:58:00.565Z,14.76
2022-09-10T06:59:04.095Z,13.63
2022-09-10T07:00:11.125Z,13.41
2022-09-10T07:01:19.666Z,13.34
2022-09-10T07:02:25.420Z,12.65
2022-09-10T07:03:28.641Z,11.81
2022-09-10T07:04:30.260Z,11.64
2022-09-10T07:05:33.535Z,11.19
2022-09-10T07:06:37.030Z,10.48
2022-09-10T07:07:50.694Z,10.44
2022-09-10T07:08:57.443Z,10.32
2022-09-10T07:09:59.783Z,9.48
2022-09-10T07:11:05.234Z,9.26
2022-09-10T07:12:09.387Z,9.00
2022-09-10T07:13:13.517Z,8.57
2022-09-10T07:14:15.569Z,8.84
2022-09-10T07:15:17.370Z,9.19
2022-09-10T07:16:23.538Z,8.70
2022-09-10T07:17:29.856Z,8.71
2022-09-10T07:18:34.124Z,8.74
2022-09-10T07:19:37.634Z,8.50
2022-09-10T07:20:46.955Z,8.53
2022-09-10T07:21:50.123Z,8.18
2022-09-10T07:22:53.246Z,7.62
2022-09-10T07:23:57.618Z,7.26
2022-09-10T07:25:00.176Z,7.10
2022-09-10T07:26:11.369Z,6.55
2022-09-10T07:27:18.476Z,6.97
2022-09-10T07:28:21.849Z,6.51
2022-09-10T07:29:23.746Z,7.72
2022-09-10T07:30:29.199Z,7.59
2022-09-10T07:31:34.083Z,7.12
2022-09-10T07:32:41.173Z,7.78
2022-09-10T07:33:49.193Z,7.08
2022-09-10T07:34:52.281Z,6.60
2022-09-10T07:35:54.679Z,5.67
2022-09-10T07:36:57.224Z,5.88
2022-09-10T07:38:00.139Z,6.00
2022-09-10T07:39:03.500Z,5.85
2022-09-10T07:40:09.074Z,5.68
2022-09-10T07:41:13.921Z,5.55
2022-09-10T07:42:16.160Z,5.83
2022-09-10T07:43:18.977Z,5.68
2022-09-10T07:44:20.618Z,5.42
2022-09-10T07:45:23.105Z,5.92
2022-09-10T07:46:27.917Z,5.84
2022-09-10T07:47:30.273Z,5.57
2022-09-10T07:48:32.226Z,5.46
2022-09-10T07:49:34.551Z,5.65
2022-09-10T07:50:37.141Z,5.29
2022-09-10T07:51:39.396Z,5.61
2022-09-10T07:52:42.265Z,5.86
2022-09-10T07:53:50.281Z,5.66
2022-09-10T07:54:52.727Z,5.20
2022-09-10T07:56:03.275Z,5.02
2022-09-10T07:57:08.631Z,5.23
2022-09-10T07:58:10.762Z,5.38
2022-09-10T07:59:17.542Z,5.48
2022-09-10T08:00:22.329Z,4.98
2022-09-10T08:01:25.991Z,5.12
2022-09-10T08:02:27.756Z,5.01
2022-09-10T08:03:34.093Z,5.18
2022-09-10T08:04:37.505Z,5.23
2022-09-10T08:05:41.938Z,5.66
2022-09-10T08:06:44.059Z,6.71
2022-09-10T08:07:46.599Z,7.17
2022-09-10T08:08:48.766Z,7.27
2022-09-10T08:09:50.746Z,8.07
2022-09-10T08:10:53.744Z,10.78
2022-09-10T08:11:55.451Z,11.06
2022-09-10T08:12:58.841Z,8.77
2022-09-10T08:14:01.194Z,8.29
2022-09-10T08:15:04.936Z,8.94
2022-09-10T08:16:09.249Z,8.34
2022-09-10T08:17:10.920Z,8.24
2022-09-10T08:18:15.256Z,10.30
2022-09-10T08:19:18.118Z,12.42
2022-09-10T08:20:20.383Z,12.79
2022-09-10T08:21:23.331Z,11.98
2022-09-10T08:22:25.881Z,8.48
2022-09-10T08:23:30.298Z,6.30
2022-09-10T08:24:31.986Z,5.65
2022-09-10T08:25:34.711Z,6.29
2022-09-10T08:26:36.590Z,5.66
2022-09-10T08:27:42.065Z,4.64
2022-09-10T08:28:44.258Z,4.30
2022-09-10T08:29:45.928Z,4.34
2022-09-10T08:31:07.853Z,4.44
2022-09-10T08:32:13.897Z,5.66
2022-09-10T08:33:16.764Z,7.27
2022-09-10T08:34:18.773Z,8.22
2022-09-10T08:35:24.448Z,6.72
2022-09-10T08:36:26.295Z,6.70
2022-09-10T08:37:28.972Z,8.17
2022-09-10T08:38:33.870Z,11.42
2022-09-10T08:39:35.592Z,12.49
2022-09-10T08:40:42.648Z,14.09
2022-09-10T08:41:53.986Z,16.35
2022-09-10T08:42:58.498Z,18.50
2022-09-10T08:44:11.544Z,17.35
2022-09-10T08:45:27.498Z,13.64
2022-09-10T08:46:43.110Z,8.97
2022-09-10T08:48:16.308Z,5.85
2022-09-10T08:49:45.911Z,4.39
2022-09-10T08:50:56.994Z,4.37
2022-09-10T08:52:21.446Z,4.29
2022-09-10T08:53:41.959Z,4.06
2022-09-10T08:55:04.151Z,3.81
2022-09-10T08:56:18.255Z,4.05
2022-09-10T08:57:35.154Z,3.87
2022-09-10T08:59:03.077Z,3.89
2022-09-10T09:00:12.251Z,3.89
2022-09-10T09:01:29.604Z,3.99
2022-09-10T09:02:49.133Z,4.49
2022-09-10T09:03:57.265Z,4.22
2022-09-10T09:05:21.803Z,3.74
2022-09-10T09:06:48.177Z,3.61
2022-09-10T09:07:52.086Z,4.02
2022-09-10T09:08:54.215Z,3.81
2022-09-10T09:10:00.867Z,3.56
2022-09-10T09:11:12.767Z,3.44
2022-09-10T09:12:45.127Z,3.90
2022-09-10T09:14:05.652Z,3.85
2022-09-10T09:15:30.725Z,3.79
2022-09-10T09:16:54.465Z,3.95
2022-09-10T09:18:19.283Z,4.18
2022-09-10T09:19:38.847Z,4.78
2022-09-10T09:20:56.371Z,4.33
2022-09-10T09:22:20.509Z,4.05
2022-09-10T09:24:02.705Z,4.34
2022-09-10T09:25:38.624Z,4.79
2022-09-10T09:26:47.073Z,4.74
2022-09-10T09:27:56.268Z,5.42
2022-09-10T09:29:12.759Z,4.93
2022-09-10T09:30:25.940Z,4.87
2022-09-10T09:31:32.796Z,4.70
2022-09-10T09:32:44.126Z,4.94
2022-09-10T09:33:51.619Z,4.58
2022-09-10T09:34:57.354Z,4.59
2022-09-10T09:36:03.882Z,4.39
2022-09-10T09:37:17.387Z,4.44
2022-09-10T09:38:25.095Z,4.36
2022-09-10T09:39:44.107Z,4.03
2022-09-10T09:40:47.726Z,4.12
2022-09-10T09:42:19.503Z,4.45
2022-09-10T09:43:34.691Z,3.68
2022-09-10T09:44:47.511Z,3.87
2022-09-10T09:45:53.388Z,4.12
2022-09-10T09:46:56.385Z,4.30
2022-09-10T09:47:59.761Z,4.16
2022-09-10T09:49:02.634Z,4.39
2022-09-10T09:50:05.124Z,4.15
2022-09-10T09:51:12.808Z,4.20
2022-09-10T09:52:23.343Z,3.91
2022-09-10T09:53:29.289Z,3.68
2022-09-10T09:55:03.021Z,3.75
2022-09-10T09:56:12.751Z,3.32
2022-09-10T09:57:20.348Z,4.37
2022-09-10T09:58:21.855Z,4.00
2022-09-10T09:59:34.947Z,4.17
2022-09-10T10:00:37.813Z,3.99
2022-09-10T10:01:42.816Z,4.09
2022-09-10T10:02:45.225Z,4.08
2022-09-10T10:03:59.450Z,3.92
2022-09-10T10:05:39.022Z,3.74
2022-09-10T10:06:54.760Z,3.73
2022-09-10T10:07:56.509Z,3.50
2022-09-10T10:09:23.211Z,3.92
2022-09-10T10:10:27.744Z,4.04
2022-09-10T10:11:43.650Z,3.66
2022-09-10T10:12:51.173Z,3.84
2022-09-10T10:13:52.950Z,3.58
2022-09-10T10:14:54.572Z,3.52
2022-09-10T10:15:56.247Z,3.48
2022-09-10T10:17:00.977Z,3.38
2022-09-10T10:18:32.013Z,3.70
2022-09-10T10:19:37.495Z,3.89
2022-09-10T10:20:41.389Z,3.79
2022-09-10T10:21:44.881Z,3.43
2022-09-10T10:22:48.740Z,4.03
2022-09-10T10:23:50.487Z,4.13
2022-09-10T10:24:54.343Z,4.16
2022-09-10T10:25:56.033Z,4.58
2022-09-10T10:26:59.241Z,4.66
2022-09-10T10:28:01.639Z,5.14
2022-09-10T10:29:18.482Z,5.12
2022-09-10T10:30:21.556Z,5.33
2022-09-10T10:31:23.694Z,5.09
2022-09-10T10:32:38.563Z,5.20
2022-09-10T10:34:00.967Z,5.13
2022-09-10T10:35:11.529Z,4.93
2022-09-10T10:36:40.260Z,5.47
2022-09-10T10:38:08.633Z,5.52
2022-09-10T10:39:22.098Z,5.05
2022-09-10T10:40:30.274Z,7.14
2022-09-10T10:41:54.425Z,7.43
2022-09-10T10:43:23.295Z,6.82
2022-09-10T10:44:49.269Z,7.34
2022-09-10T10:46:08.691Z,5.74
2022-09-10T10:47:36.366Z,5.14
2022-09-10T10:49:04.319Z,4.73
2022-09-10T10:50:25.413Z,4.45
2022-09-10T10:51:48.822Z,4.34
2022-09-10T10:53:13.821Z,4.26
2022-09-10T10:54:44.848Z,4.25
2022-09-10T10:56:08.421Z,4.37
2022-09-10T10:57:23.060Z,4.99
2022-09-10T10:58:40.745Z,4.75
2022-09-10T11:00:07.372Z,4.59
2022-09-10T11:01:23.435Z,4.45
2022-09-10T11:02:52.997Z,4.27
2022-09-10T11:04:23.202Z,4.84
2022-09-10T11:05:58.588Z,4.38
2022-09-10T11:07:28.759Z,4.39
2022-09-10T11:08:40.425Z,5.15
2022-09-10T11:10:11.443Z,4.89
2022-09-10T11:11:27.854Z,5.06
2022-09-10T11:13:11.298Z,4.85
2022-09-10T11:14:48.615Z,5.54
2022-09-10T11:16:15.041Z,4.82
2022-09-10T11:17:27.076Z,5.40
2022-09-10T11:18:42.852Z,5.02
2022-09-10T11:20:26.696Z,5.24
2022-09-10T11:21:38.262Z,4.81
2022-09-10T11:22:49.222Z,5.37
2022-09-10T11:24:04.939Z,5.37
2022-09-10T11:25:22.541Z,5.33
2022-09-10T11:26:33.537Z,5.23
2022-09-10T11:27:42.167Z,5.03
2022-09-10T11:28:58.813Z,5.14
2022-09-10T11:30:10.146Z,5.09
2022-09-10T11:31:25.287Z,5.33
2022-09-10T11:32:45.196Z,4.82
2022-09-10T11:33:57.631Z,5.30
2022-09-10T11:35:23.404Z,5.45
2022-09-10T11:36:33.307Z,6.65
2022-09-10T11:38:07.587Z,6.36
2022-09-10T11:39:35.202Z,6.46
2022-09-10T11:40:59.390Z,7.40
2022-09-10T11:42:14.748Z,6.65
2022-09-10T11:43:37.272Z,7.37
2022-09-10T11:45:07.557Z,7.70
2022-09-10T11:46:19.441Z,7.51
2022-09-10T11:47:38.681Z,7.30
2022-09-10T11:48:51.963Z,7.43
2022-09-10T11:50:23.021Z,7.19
2022-09-10T11:51:33.638Z,7.11
2022-09-10T11:52:35.813Z,7.42
2022-09-10T11:53:37.588Z,7.63
2022-09-10T11:54:40.470Z,7.46
2022-09-10T11:56:15.314Z,7.42
2022-09-10T11:57:32.241Z,7.27
2022-09-10T11:58:42.376Z,7.51
2022-09-10T12:00:03.476Z,7.87
2022-09-10T12:01:46.861Z,7.87
2022-09-10T12:03:01.719Z,7.58
2022-09-10T12:04:17.169Z,7.82
2022-09-10T12:05:54.121Z,7.83
2022-09-10T12:07:05.075Z,7.90
2022-09-10T12:08:17.514Z,8.08
2022-09-10T12:09:41.998Z,7.56
2022-09-10T12:11:20.606Z,8.27
2022-09-10T12:12:45.134Z,8.03
2022-09-10T12:13:50.077Z,8.40
2022-09-10T12:14:51.826Z,8.20
2022-09-10T12:15:59.738Z,7.96
2022-09-10T12:17:16.077Z,8.60
2022-09-10T12:18:24.467Z,9.42
2022-09-10T12:19:38.513Z,8.12
2022-09-10T12:20:53.001Z,8.55
2022-09-10T12:22:15.880Z,9.80
2022-09-10T12:23:33.639Z,9.96
2022-09-10T12:24:39.403Z,9.73
2022-09-10T12:25:41.970Z,9.96
2022-09-10T12:26:45.387Z,9.95
2022-09-10T12:27:50.231Z,9.25
2022-09-10T12:28:51.747Z,8.97
2022-09-10T12:29:54.403Z,9.36
2022-09-10T12:31:01.140Z,9.26
2022-09-10T12:32:08.610Z,9.53
2022-09-10T12:33:13.180Z,9.64
2022-09-10T12:34:19.434Z,9.07
2022-09-10T12:35:30.369Z,9.06
2022-09-10T12:36:32.856Z,9.36
2022-09-10T12:37:34.587Z,8.61
2022-09-10T12:38:55.089Z,8.84
2022-09-10T12:40:25.365Z,8.57
2022-09-10T12:41:27.201Z,8.47
2022-09-10T12:42:32.506Z,8.58
2022-09-10T12:43:40.000Z,7.97
2022-09-10T12:44:41.725Z,8.54
2022-09-10T12:46:05.484Z,9.23
2022-09-10T12:47:16.413Z,9.63
2022-09-10T12:48:18.273Z,9.52
2022-09-10T12:49:21.486Z,9.60
2022-09-10T12:50:31.370Z,9.66
2022-09-10T12:51:51.663Z,9.29
2022-09-10T12:53:14.955Z,9.50
2022-09-10T12:54:57.484Z,8.76
2022-09-10T12:56:37.594Z,9.21
2022-09-10T12:57:54.819Z,9.06
2022-09-10T12:59:33.127Z,9.23
2022-09-10T13:00:58.125Z,9.98
2022-09-10T13:02:00.623Z,9.37
2022-09-10T13:03:05.838Z,9.70
2022-09-10T13:04:20.463Z,9.21
2022-09-10T13:05:31.459Z,9.66
2022-09-10T13:06:38.186Z,9.35
2022-09-10T13:07:41.978Z,9.51
2022-09-10T13:08:47.665Z,9.15
2022-09-10T13:10:19.688Z,8.99
2022-09-10T13:11:25.942Z,8.63
2022-09-10T13:12:32.711Z,9.06
2022-09-10T13:13:56.478Z,9.04
2022-09-10T13:15:02.594Z,8.55
2022-09-10T13:16:09.423Z,9.12
2022-09-10T13:17:51.373Z,9.34
2022-09-10T13:19:05.716Z,9.66
2022-09-10T13:20:28.961Z,9.28
2022-09-10T13:21:31.722Z,9.66
2022-09-10T13:23:06.560Z,8.86
2022-09-10T13:24:35.724Z,9.36
2022-09-10T13:25:43.475Z,10.09
2022-09-10T13:26:52.397Z,9.81
2022-09-10T13:27:54.085Z,9.59
2022-09-10T13:28:56.203Z,8.63
2022-09-10T13:30:17.628Z,8.69
2022-09-10T13:31:27.039Z,9.23
2022-09-10T13:32:46.446Z,9.08
2022-09-10T13:34:19.559Z,9.72
2022-09-10T13:35:45.454Z,9.23
2022-09-10T13:37:14.200Z,9.70
2022-09-10T13:38:39.757Z,8.99
2022-09-10T13:39:54.669Z,9.49
2022-09-10T13:41:25.642Z,8.92
2022-09-10T13:42:57.703Z,9.57
2022-09-10T13:44:26.130Z,9.08
2022-09-10T13:45:41.729Z,8.57
2022-09-10T13:46:50.543Z,8.86
2022-09-10T13:48:10.457Z,9.09
2022-09-10T13:49:30.286Z,9.23
2022-09-10T13:50:39.913Z,9.07
2022-09-10T13:51:48.054Z,8.87
2022-09-10T13:52:56.696Z,8.81
2022-09-10T13:54:33.164Z,9.74
2022-09-10T13:55:35.716Z,9.65
2022-09-10T13:56:43.070Z,9.05
2022-09-10T13:57:50.002Z,8.88
2022-09-10T13:59:00.814Z,8.11
2022-09-10T14:00:19.493Z,8.35
2022-09-10T14:01:51.199Z,9.58
2022-09-10T14:03:01.317Z,9.36
2022-09-10T14:04:23.941Z,8.77
2022-09-10T14:05:31.298Z,9.04
2022-09-10T14:06:33.254Z,9.76
2022-09-10T14:07:34.914Z,9.78
2022-09-10T14:09:02.882Z,9.72
2022-09-10T14:10:06.872Z,10.50
2022-09-10T14:11:21.933Z,10.36
2022-09-10T14:12:29.500Z,9.88
2022-09-10T14:13:36.829Z,9.81
2022-09-10T14:14:45.010Z,9.55
2022-09-10T14:15:47.651Z,9.87
2022-09-10T14:17:02.592Z,9.68
2022-09-10T14:18:05.061Z,10.60
2022-09-10T14:19:17.486Z,9.59
2022-09-10T14:20:35.293Z,9.44
2022-09-10T14:21:37.274Z,9.91
2022-09-10T14:22:39.301Z,9.88
2022-09-10T14:23:49.086Z,9.64
2022-09-10T14:25:00.639Z,10.99
2022-09-10T14:26:15.078Z,10.70
2022-09-10T14:27:24.016Z,10.19
2022-09-10T14:28:27.921Z,11.78
2022-09-10T14:29:29.542Z,11.97
2022-09-10T14:30:32.070Z,12.37
2022-09-10T14:31:37.536Z,11.62
2022-09-10T14:32:40.001Z,11.90
2022-09-10T14:33:41.851Z,12.20
2022-09-10T14:34:43.738Z,12.23
2022-09-10T14:35:49.526Z,12.31
2022-09-10T14:36:51.302Z,11.78
2022-09-10T14:37:53.354Z,11.78
2022-09-10T14:39:04.933Z,11.98
2022-09-10T14:40:17.876Z,12.28
2022-09-10T14:41:23.009Z,12.97
2022-09-10T14:42:34.967Z,13.91
2022-09-10T14:43:40.329Z,14.05
2022-09-10T14:44:43.238Z,12.56
2022-09-10T14:45:49.823Z,12.82
2022-09-10T14:46:59.872Z,12.82
2022-09-10T14:48:01.618Z,13.00
2022-09-10T14:49:09.776Z,13.68
2022-09-10T14:50:26.279Z,13.16
2022-09-10T14:51:27.948Z,12.84
2022-09-10T14:52:29.751Z,13.03
2022-09-10T14:53:31.384Z,13.64
2022-09-10T14:54:34.608Z,14.20
2022-09-10T14:55:36.863Z,14.49
2022-09-10T14:56:42.318Z,14.38
2022-09-10T14:57:44.386Z,14.24
2022-09-10T14:58:46.808Z,14.80
2022-09-10T14:59:48.501Z,14.09
2022-09-10T15:00:51.811Z,14.99